Bangor, ME

7:02 PM EST on January 22, 2017 (GMT -0500)
Essex St Hill | | Change Station
Active Advisory: Gale Warning

Elev 208 ft 44.82 °N, 68.77 °W | Updated 9 seconds ago

Overcast
Overcast
31.6 °F
Feels Like 32 °F
N
2.0
Wind Variable Wind from East
Gusts 7.0 mph

Today
High -- | Low -- °F
--% Chance of Precip.
Yesterday
High -- | Low -- °F
Precip. -- in
Pressure 30.03 in
Visibility 10.0 miles
Clouds Overcast 3300 ft
Windchill 32 °F
Dew Point 21 °F
Humidity 64%
Rainfall 0.02 in
Snow Depth Not available.
7:04 AM 4:29 PM
Waning Crescent, 23% visible
METAR KBGR 222353Z 04013G19KT 10SM OVC033 M01/M06 A3002 RMK AO2 SLP167 T10061061 10022 21006 51011
Pressure 30.03 in
Visibility 10.0 miles
Clouds Overcast 3300 ft
Windchill 32 °F
Dew Point 21 °F
Humidity 64%
Rainfall 0.02 in
Snow Depth Not available.
7:04 AM 4:29 PM
Waning Crescent, 23% visible
METAR KBGR 222353Z 04013G19KT 10SM OVC033 M01/M06 A3002 RMK AO2 SLP167 T10061061 10022 21006 51011

Get Your Daily Forecast Email!

Thanks for signing up!

Be on the lookout for a verification email in your inbox.

You'll start receiving the daily forecast at 8 AM.

×

10-Day Weather Forecast

Almanac

Astronomy

Jan. 22, 2017 Rise Set
Actual Time
Civil Twilight
Nautical Twilight
Astronomical Twilight
Moon
Length of Visible Light
Length of Day
Tomorrow will be .
, % of the Moon is Illuminated

Today's Extremes

State Highs State Lows

Community

WunderPhotos

Upload Photos

1,962,540 photos uploaded!

WunderBlog® & News

Nearby

Air Quality

  Air Quality AQ Index Pollutant
Not available.

Snow Depth

Station Depth Elevation

Earthquake Activity

City Distance Mag. Time & Date
Minimum magnitude displayed is 2.5.

Coastal Water Temperatures

Place Temperature

Stations

Nearby Weather Stations

Station Location Temp. Windchill Dew Point Humidity Wind Precip. Elev Updated Type
                   

Watches & Warnings

Gale Warning
Issued: 3:01 PM EST Jan. 22, 2017 – National Weather Service

... Gale Warning remains in effect from 3 PM Monday to 11 am EST
Tuesday...

* winds... northeast 20 to 30 kt with gusts up to 45 kt.

* Seas... 6 to 11 feet.

Precautionary/preparedness actions...

A Gale Warning means winds of 34 to 47 knots are imminent or
occuring. Operating a vessel in gale conditions requires
experience and properly equipped vessels. It is highly
recommended that mariners without the proper experience seek safe
Harbor prior to the onset of gale conditions.